ADDS METAR Data INFO
IDs: Format: Raw Decoded Include TAF

Data at: 0729 UTC 16 Jan 2018

METAR for:K3I2 (Point Pleasant/Mason, WV, US)
Text:K3I2 160715Z AUTO 00000KT 10SM BKN020 OVC031 00/M03 A3037 RMK AO2 T10011031
Temperature: -0.1°C ( 32°F)
Dewpoint: -3.1°C ( 26°F) [RH = 80%]
Pressure (altimeter):30.37 inches Hg (1028.5 mb)
Winds:calm
Visibility:10 or more sm (16+ km)
Ceiling:2000 feet AGL
Clouds: broken clouds at 2000 feet AGL, overcast cloud deck at 3100 feet AGL
QC Flag:automated observation with no human augmentation
Text:K3I2 160655Z AUTO 00000KT 10SM OVC020 00/M03 A3037 RMK AO2 T00001031
Temperature: 0.0°C ( 32°F)
Dewpoint: -3.1°C ( 26°F) [RH = 80%]
Pressure (altimeter):30.37 inches Hg (1028.5 mb)
Winds:calm
Visibility:10 or more sm (16+ km)
Ceiling:2000 feet AGL
Clouds: overcast cloud deck at 2000 feet AGL
QC Flag:automated observation with no human augmentation
Text:K3I2 160635Z AUTO 00000KT 10SM OVC018 00/M03 A3036 RMK AO2 T00001030
Temperature: 0.0°C ( 32°F)
Dewpoint: -3.0°C ( 27°F) [RH = 80%]
Pressure (altimeter):30.36 inches Hg (1028.2 mb)
Winds:calm
Visibility:10 or more sm (16+ km)
Ceiling:1800 feet AGL
Clouds: overcast cloud deck at 1800 feet AGL
QC Flag:automated observation with no human augmentation
Text:K3I2 160615Z AUTO 00000KT 10SM BKN018 OVC027 00/M03 A3037 RMK AO2 T00001031
Temperature: 0.0°C ( 32°F)
Dewpoint: -3.1°C ( 26°F) [RH = 80%]
Pressure (altimeter):30.37 inches Hg (1028.5 mb)
Winds:calm
Visibility:10 or more sm (16+ km)
Ceiling:1800 feet AGL
Clouds: broken clouds at 1800 feet AGL, overcast cloud deck at 2700 feet AGL
QC Flag:automated observation with no human augmentation
Text:K3I2 160555Z AUTO 00000KT 10SM BKN018 BKN025 BKN036 00/M02 A3037 RMK AO2 T00001024 10011 21002 400311144
Temperature: 0.0°C ( 32°F)
Dewpoint: -2.4°C ( 28°F) [RH = 84%]
Pressure (altimeter):30.37 inches Hg (1028.5 mb)
Winds:calm
Visibility:10 or more sm (16+ km)
Ceiling:1800 feet AGL
Clouds: broken clouds at 1800 feet AGL, broken clouds at 2500 feet AGL, broken clouds at 3600 feet AGL
QC Flag:automated observation with no human augmentation
Text:K3I2 160535Z AUTO 00000KT 10SM SCT002 SCT007 BKN016 00/M02 A3037 RMK AO2 T00001020
Temperature: 0.0°C ( 32°F)
Dewpoint: -2.0°C ( 28°F) [RH = 86%]
Pressure (altimeter):30.37 inches Hg (1028.5 mb)
Winds:calm
Visibility:10 or more sm (16+ km)
Ceiling:1600 feet AGL
Clouds: scattered clouds at 200 feet AGL, scattered clouds at 700 feet AGL, broken clouds at 1600 feet AGL
QC Flag:automated observation with no human augmentation
Text:K3I2 160515Z AUTO 22004KT 10SM SCT002 SCT007 BKN014 00/M02 A3036 RMK AO2 T00011020
Temperature: 0.1°C ( 32°F)
Dewpoint: -2.0°C ( 28°F) [RH = 86%]
Pressure (altimeter):30.36 inches Hg (1028.2 mb)
Winds:from the SW (220 degrees) at 5 MPH (4 knots; 2.1 m/s)
Visibility:10 or more sm (16+ km)
Ceiling:1400 feet AGL
Clouds: scattered clouds at 200 feet AGL, scattered clouds at 700 feet AGL, broken clouds at 1400 feet AGL
QC Flag:automated observation with no human augmentation
Text:K3I2 160455Z AUTO 25004KT 10SM SCT002 BKN016 BKN022 00/M02 A3037 RMK AO2 T00031021
Temperature: 0.3°C ( 33°F)
Dewpoint: -2.1°C ( 28°F) [RH = 84%]
Pressure (altimeter):30.37 inches Hg (1028.5 mb)
Winds:from the WSW (250 degrees) at 5 MPH (4 knots; 2.1 m/s)
Visibility:10 or more sm (16+ km)
Ceiling:1600 feet AGL
Clouds: scattered clouds at 200 feet AGL, broken clouds at 1600 feet AGL, broken clouds at 2200 feet AGL
QC Flag:automated observation with no human augmentation
Text:K3I2 160435Z AUTO 00000KT 10SM SCT018 SCT025 BKN039 01/M02 A3036 RMK AO2 T00051021
Temperature: 0.5°C ( 33°F)
Dewpoint: -2.1°C ( 28°F) [RH = 83%]
Pressure (altimeter):30.36 inches Hg (1028.2 mb)
Winds:calm
Visibility:10 or more sm (16+ km)
Ceiling:3900 feet AGL
Clouds: scattered clouds at 1800 feet AGL, scattered clouds at 2500 feet AGL, broken clouds at 3900 feet AGL
QC Flag:automated observation with no human augmentation
Text:K3I2 160415Z AUTO 24003KT 10SM SCT018 OVC041 01/M02 A3036 RMK AO2 T00061020
Temperature: 0.6°C ( 33°F)
Dewpoint: -2.0°C ( 28°F) [RH = 83%]
Pressure (altimeter):30.36 inches Hg (1028.2 mb)
Winds:from the WSW (240 degrees) at 3 MPH (3 knots; 1.5 m/s)
Visibility:10 or more sm (16+ km)
Ceiling:4100 feet AGL
Clouds: scattered clouds at 1800 feet AGL, overcast cloud deck at 4100 feet AGL
QC Flag:automated observation with no human augmentation
Text:K3I2 160355Z AUTO 00000KT 10SM SCT037 BKN044 01/M02 A3036 RMK AO2 T00071020
Temperature: 0.7°C ( 33°F)
Dewpoint: -2.0°C ( 28°F) [RH = 82%]
Pressure (altimeter):30.36 inches Hg (1028.2 mb)
Winds:calm
Visibility:10 or more sm (16+ km)
Ceiling:4400 feet AGL
Clouds: scattered clouds at 3700 feet AGL, broken clouds at 4400 feet AGL
QC Flag:automated observation with no human augmentation
Text:K3I2 160335Z AUTO 25003KT 10SM BKN042 BKN048 01/M02 A3035 RMK AO2 T00101021
Temperature: 1.0°C ( 34°F)
Dewpoint: -2.1°C ( 28°F) [RH = 80%]
Pressure (altimeter):30.35 inches Hg (1027.9 mb)
Winds:from the WSW (250 degrees) at 3 MPH (3 knots; 1.5 m/s)
Visibility:10 or more sm (16+ km)
Ceiling:4200 feet AGL
Clouds: broken clouds at 4200 feet AGL, broken clouds at 4800 feet AGL
QC Flag:automated observation with no human augmentation
Text:K3I2 160315Z AUTO 00000KT 10SM BKN044 OVC050 01/M02 A3035 RMK AO2 T00101021
Temperature: 1.0°C ( 34°F)
Dewpoint: -2.1°C ( 28°F) [RH = 80%]
Pressure (altimeter):30.35 inches Hg (1027.9 mb)
Winds:calm
Visibility:10 or more sm (16+ km)
Ceiling:4400 feet AGL
Clouds: broken clouds at 4400 feet AGL, overcast cloud deck at 5000 feet AGL
QC Flag:automated observation with no human augmentation
Text:K3I2 160255Z AUTO 00000KT 10SM OVC048 01/M02 A3034 RMK AO2 T00101020
Temperature: 1.0°C ( 34°F)
Dewpoint: -2.0°C ( 28°F) [RH = 80%]
Pressure (altimeter):30.34 inches Hg (1027.5 mb)
Winds:calm
Visibility:10 or more sm (16+ km)
Ceiling:4800 feet AGL
Clouds: overcast cloud deck at 4800 feet AGL
QC Flag:automated observation with no human augmentation
Text:K3I2 160235Z AUTO 00000KT 10SM OVC046 01/M02 A3034 RMK AO2 T00101022
Temperature: 1.0°C ( 34°F)
Dewpoint: -2.2°C ( 28°F) [RH = 79%]
Pressure (altimeter):30.34 inches Hg (1027.5 mb)
Winds:calm
Visibility:10 or more sm (16+ km)
Ceiling:4600 feet AGL
Clouds: overcast cloud deck at 4600 feet AGL
QC Flag:automated observation with no human augmentation
Text:K3I2 160215Z AUTO 26003KT 10SM OVC048 01/M03 A3033 RMK AO2 T00111026
Temperature: 1.1°C ( 34°F)
Dewpoint: -2.6°C ( 27°F) [RH = 76%]
Pressure (altimeter):30.33 inches Hg (1027.2 mb)
Winds:from the W (260 degrees) at 3 MPH (3 knots; 1.5 m/s)
Visibility:10 or more sm (16+ km)
Ceiling:4800 feet AGL
Clouds: overcast cloud deck at 4800 feet AGL
QC Flag:automated observation with no human augmentation
Text:K3I2 160155Z AUTO 27003KT 10SM BKN050 01/M03 A3033 RMK AO2 T00101030
Temperature: 1.0°C ( 34°F)
Dewpoint: -3.0°C ( 27°F) [RH = 75%]
Pressure (altimeter):30.33 inches Hg (1027.2 mb)
Winds:from the W (270 degrees) at 3 MPH (3 knots; 1.5 m/s)
Visibility:10 or more sm (16+ km)
Ceiling:5000 feet AGL
Clouds: broken clouds at 5000 feet AGL
QC Flag:automated observation with no human augmentation
Text:K3I2 160135Z AUTO 00000KT 10SM BKN048 00/M02 A3032 RMK AO2 T00001025
Temperature: 0.0°C ( 32°F)
Dewpoint: -2.5°C ( 28°F) [RH = 83%]
Pressure (altimeter):30.32 inches Hg (1026.8 mb)
Winds:calm
Visibility:10 or more sm (16+ km)
Ceiling:4800 feet AGL
Clouds: broken clouds at 4800 feet AGL
QC Flag:automated observation with no human augmentation
Text:K3I2 160115Z AUTO 00000KT 10SM BKN050 00/M02 A3032 RMK AO2 T10021022
Temperature: -0.2°C ( 32°F)
Dewpoint: -2.2°C ( 28°F) [RH = 86%]
Pressure (altimeter):30.32 inches Hg (1026.8 mb)
Winds:calm
Visibility:10 or more sm (16+ km)
Ceiling:5000 feet AGL
Clouds: broken clouds at 5000 feet AGL
QC Flag:automated observation with no human augmentation
Text:K3I2 160055Z AUTO 00000KT 10SM OVC050 00/M03 A3031 RMK AO2 T00001031
Temperature: 0.0°C ( 32°F)
Dewpoint: -3.1°C ( 26°F) [RH = 80%]
Pressure (altimeter):30.31 inches Hg (1026.5 mb)
Winds:calm
Visibility:10 or more sm (16+ km)
Ceiling:5000 feet AGL
Clouds: overcast cloud deck at 5000 feet AGL
QC Flag:automated observation with no human augmentation
Text:K3I2 160035Z AUTO 00000KT 10SM BKN050 00/M03 A3031 RMK AO2 T00011032
Temperature: 0.1°C ( 32°F)
Dewpoint: -3.2°C ( 26°F) [RH = 78%]
Pressure (altimeter):30.31 inches Hg (1026.5 mb)
Winds:calm
Visibility:10 or more sm (16+ km)
Ceiling:5000 feet AGL
Clouds: broken clouds at 5000 feet AGL
QC Flag:automated observation with no human augmentation
Text:K3I2 160015Z AUTO 00000KT 10SM BKN050 00/M02 A3031 RMK AO2 T00001022
Temperature: 0.0°C ( 32°F)
Dewpoint: -2.2°C ( 28°F) [RH = 85%]
Pressure (altimeter):30.31 inches Hg (1026.5 mb)
Winds:calm
Visibility:10 or more sm (16+ km)
Ceiling:5000 feet AGL
Clouds: broken clouds at 5000 feet AGL
QC Flag:automated observation with no human augmentation
Text:K3I2 152355Z AUTO 00000KT 10SM BKN050 00/M03 A3031 RMK AO2 T00001028 10031 20000
Temperature: 0.0°C ( 32°F)
Dewpoint: -2.8°C ( 27°F) [RH = 81%]
Pressure (altimeter):30.31 inches Hg (1026.5 mb)
Winds:calm
Visibility:10 or more sm (16+ km)
Ceiling:5000 feet AGL
Clouds: broken clouds at 5000 feet AGL
QC Flag:automated observation with no human augmentation
Text:K3I2 152335Z AUTO 00000KT 10SM BKN050 00/M03 A3030 RMK AO2 T00001026
Temperature: 0.0°C ( 32°F)
Dewpoint: -2.6°C ( 27°F) [RH = 83%]
Pressure (altimeter):30.30 inches Hg (1026.2 mb)
Winds:calm
Visibility:10 or more sm (16+ km)
Ceiling:5000 feet AGL
Clouds: broken clouds at 5000 feet AGL
QC Flag:automated observation with no human augmentation
Text:K3I2 152315Z AUTO 00000KT 10SM SCT055 00/M04 A3030 RMK AO2 T00001036
Temperature: 0.0°C ( 32°F)
Dewpoint: -3.6°C ( 26°F) [RH = 77%]
Pressure (altimeter):30.30 inches Hg (1026.2 mb)
Winds:calm
Visibility:10 or more sm (16+ km)
Ceiling:at least 12,000 feet AGL
Clouds: scattered clouds at 5500 feet AGL
QC Flag:automated observation with no human augmentation
Text:K3I2 152255Z AUTO 00000KT 10SM CLR 00/M03 A3029 RMK AO2 T00011029
Temperature: 0.1°C ( 32°F)
Dewpoint: -2.9°C ( 27°F) [RH = 80%]
Pressure (altimeter):30.29 inches Hg (1025.8 mb)
Winds:calm
Visibility:10 or more sm (16+ km)
Ceiling:at least 12,000 feet AGL
Clouds:sky clear below 12,000 feet AGL
QC Flag:automated observation with no human augmentation
Text:K3I2 152235Z AUTO 00000KT 10SM SCT060 01/M03 A3029 RMK AO2 T00091035
Temperature: 0.9°C ( 34°F)
Dewpoint: -3.5°C ( 26°F) [RH = 72%]
Pressure (altimeter):30.29 inches Hg (1025.8 mb)
Winds:calm
Visibility:10 or more sm (16+ km)
Ceiling:at least 12,000 feet AGL
Clouds: scattered clouds at 6000 feet AGL
QC Flag:automated observation with no human augmentation
Text:K3I2 152215Z AUTO 00000KT 10SM CLR 02/M05 A3029 RMK AO2 T00191050
Temperature: 1.9°C ( 35°F)
Dewpoint: -5.0°C ( 23°F) [RH = 60%]
Pressure (altimeter):30.29 inches Hg (1025.8 mb)
Winds:calm
Visibility:10 or more sm (16+ km)
Ceiling:at least 12,000 feet AGL
Clouds:sky clear below 12,000 feet AGL
QC Flag:automated observation with no human augmentation
Text:K3I2 152155Z AUTO 00000KT 10SM CLR 03/M06 A3028 RMK AO2 T00281059
Temperature: 2.8°C ( 37°F)
Dewpoint: -5.9°C ( 21°F) [RH = 53%]
Pressure (altimeter):30.28 inches Hg (1025.5 mb)
Winds:calm
Visibility:10 or more sm (16+ km)
Ceiling:at least 12,000 feet AGL
Clouds:sky clear below 12,000 feet AGL
QC Flag:automated observation with no human augmentation
Text:K3I2 152135Z AUTO 17003KT 10SM SCT060 SCT075 03/M05 A3028 RMK AO2 T00291055
Temperature: 2.9°C ( 37°F)
Dewpoint: -5.5°C ( 22°F) [RH = 54%]
Pressure (altimeter):30.28 inches Hg (1025.5 mb)
Winds:from the S (170 degrees) at 3 MPH (3 knots; 1.5 m/s)
Visibility:10 or more sm (16+ km)
Ceiling:at least 12,000 feet AGL
Clouds: scattered clouds at 6000 feet AGL, scattered clouds at 7500 feet AGL
QC Flag:automated observation with no human augmentation
Text:K3I2 152115Z AUTO 18005KT 10SM CLR 03/M06 A3029 RMK AO2 T00311057
Temperature: 3.1°C ( 38°F)
Dewpoint: -5.7°C ( 22°F) [RH = 52%]
Pressure (altimeter):30.29 inches Hg (1025.8 mb)
Winds:from the S (180 degrees) at 6 MPH (5 knots; 2.6 m/s)
Visibility:10 or more sm (16+ km)
Ceiling:at least 12,000 feet AGL
Clouds:sky clear below 12,000 feet AGL
QC Flag:automated observation with no human augmentation
Text:K3I2 152055Z AUTO 15004KT 10SM SCT080 03/M06 A3028 RMK AO2 T00251058
Temperature: 2.5°C ( 36°F)
Dewpoint: -5.8°C ( 22°F) [RH = 54%]
Pressure (altimeter):30.28 inches Hg (1025.5 mb)
Winds:from the SSE (150 degrees) at 5 MPH (4 knots; 2.1 m/s)
Visibility:10 or more sm (16+ km)
Ceiling:at least 12,000 feet AGL
Clouds: scattered clouds at 8000 feet AGL
QC Flag:automated observation with no human augmentation
Text:K3I2 152035Z AUTO 20007KT 10SM CLR 03/M06 A3028 RMK AO2 T00261056
Temperature: 2.6°C ( 37°F)
Dewpoint: -5.6°C ( 22°F) [RH = 55%]
Pressure (altimeter):30.28 inches Hg (1025.5 mb)
Winds:from the SSW (200 degrees) at 8 MPH (7 knots; 3.6 m/s)
Visibility:10 or more sm (16+ km)
Ceiling:at least 12,000 feet AGL
Clouds:sky clear below 12,000 feet AGL
QC Flag:automated observation with no human augmentation
Text:K3I2 152015Z AUTO 14004KT 10SM CLR 03/M06 A3028 RMK AO2 T00281062
Temperature: 2.8°C ( 37°F)
Dewpoint: -6.2°C ( 21°F) [RH = 51%]
Pressure (altimeter):30.28 inches Hg (1025.5 mb)
Winds:from the SE (140 degrees) at 5 MPH (4 knots; 2.1 m/s)
Visibility:10 or more sm (16+ km)
Ceiling:at least 12,000 feet AGL
Clouds:sky clear below 12,000 feet AGL
QC Flag:automated observation with no human augmentation
Text:K3I2 151955Z AUTO 17007KT 10SM CLR 02/M06 A3029 RMK AO2 T00201063
Temperature: 2.0°C ( 36°F)
Dewpoint: -6.3°C ( 21°F) [RH = 54%]
Pressure (altimeter):30.29 inches Hg (1025.8 mb)
Winds:from the S (170 degrees) at 8 MPH (7 knots; 3.6 m/s)
Visibility:10 or more sm (16+ km)
Ceiling:at least 12,000 feet AGL
Clouds:sky clear below 12,000 feet AGL
QC Flag:automated observation with no human augmentation
Text:K3I2 151935Z AUTO 17004KT 10SM CLR 02/M07 A3029 RMK AO2 T00201068
Temperature: 2.0°C ( 36°F)
Dewpoint: -6.8°C ( 20°F) [RH = 52%]
Pressure (altimeter):30.29 inches Hg (1025.8 mb)
Winds:from the S (170 degrees) at 5 MPH (4 knots; 2.1 m/s)
Visibility:10 or more sm (16+ km)
Ceiling:at least 12,000 feet AGL
Clouds:sky clear below 12,000 feet AGL
QC Flag:automated observation with no human augmentation
Text:K3I2 151915Z AUTO 16006KT 10SM CLR 02/M06 A3030 RMK AO2 T00191062
Temperature: 1.9°C ( 35°F)
Dewpoint: -6.2°C ( 21°F) [RH = 55%]
Pressure (altimeter):30.30 inches Hg (1026.2 mb)
Winds:from the SSE (160 degrees) at 7 MPH (6 knots; 3.1 m/s)
Visibility:10 or more sm (16+ km)
Ceiling:at least 12,000 feet AGL
Clouds:sky clear below 12,000 feet AGL
QC Flag:automated observation with no human augmentation
Text:K3I2 151855Z AUTO 14004KT 10SM CLR 01/M06 A3031 RMK AO2 T00141063
Temperature: 1.4°C ( 35°F)
Dewpoint: -6.3°C ( 21°F) [RH = 56%]
Pressure (altimeter):30.31 inches Hg (1026.5 mb)
Winds:from the SE (140 degrees) at 5 MPH (4 knots; 2.1 m/s)
Visibility:10 or more sm (16+ km)
Ceiling:at least 12,000 feet AGL
Clouds:sky clear below 12,000 feet AGL
QC Flag:automated observation with no human augmentation
Text:K3I2 151835Z AUTO 11005KT 10SM CLR 01/M07 A3031 RMK AO2 T00061066
Temperature: 0.6°C ( 33°F)
Dewpoint: -6.6°C ( 20°F) [RH = 58%]
Pressure (altimeter):30.31 inches Hg (1026.5 mb)
Winds:from the ESE (110 degrees) at 6 MPH (5 knots; 2.6 m/s)
Visibility:10 or more sm (16+ km)
Ceiling:at least 12,000 feet AGL
Clouds:sky clear below 12,000 feet AGL
QC Flag:automated observation with no human augmentation
Text:K3I2 151815Z AUTO 00000KT 10SM SCT049 00/M06 A3032 RMK AO2 T00011065
Temperature: 0.1°C ( 32°F)
Dewpoint: -6.5°C ( 20°F) [RH = 61%]
Pressure (altimeter):30.32 inches Hg (1026.8 mb)
Winds:calm
Visibility:10 or more sm (16+ km)
Ceiling:at least 12,000 feet AGL
Clouds: scattered clouds at 4900 feet AGL
QC Flag:automated observation with no human augmentation
Text:K3I2 151755Z AUTO 18005KT 10SM BKN039 BKN049 00/M06 A3034 RMK AO2 T10011064 11001 21095
Temperature: -0.1°C ( 32°F)
Dewpoint: -6.4°C ( 20°F) [RH = 62%]
Pressure (altimeter):30.34 inches Hg (1027.5 mb)
Winds:from the S (180 degrees) at 6 MPH (5 knots; 2.6 m/s)
Visibility:10 or more sm (16+ km)
Ceiling:3900 feet AGL
Clouds: broken clouds at 3900 feet AGL, broken clouds at 4900 feet AGL
QC Flag:automated observation with no human augmentation
Text:K3I2 151735Z AUTO 00000KT 10SM OVC037 M01/M06 A3036 RMK AO2 T10071062
Temperature: -0.7°C ( 31°F)
Dewpoint: -6.2°C ( 21°F) [RH = 66%]
Pressure (altimeter):30.36 inches Hg (1028.2 mb)
Winds:calm
Visibility:10 or more sm (16+ km)
Ceiling:3700 feet AGL
Clouds: overcast cloud deck at 3700 feet AGL
QC Flag:automated observation with no human augmentation
Text:K3I2 151715Z AUTO 00000KT 10SM OVC037 M01/M06 A3037 RMK AO2 T10101063
Temperature: -1.0°C ( 30°F)
Dewpoint: -6.3°C ( 21°F) [RH = 67%]
Pressure (altimeter):30.37 inches Hg (1028.5 mb)
Winds:calm
Visibility:10 or more sm (16+ km)
Ceiling:3700 feet AGL
Clouds: overcast cloud deck at 3700 feet AGL
QC Flag:automated observation with no human augmentation
Text:K3I2 151655Z AUTO 13003KT 10SM BKN041 M01/M06 A3038 RMK AO2 T10151062
Temperature: -1.5°C ( 29°F)
Dewpoint: -6.2°C ( 21°F) [RH = 70%]
Pressure (altimeter):30.38 inches Hg (1028.9 mb)
Winds:from the SE (130 degrees) at 3 MPH (3 knots; 1.5 m/s)
Visibility:10 or more sm (16+ km)
Ceiling:4100 feet AGL
Clouds: broken clouds at 4100 feet AGL
QC Flag:automated observation with no human augmentation
Text:K3I2 151635Z AUTO 12005KT 10SM SCT043 SCT060 M02/M06 A3040 RMK AO2 T10191057
Temperature: -1.9°C ( 29°F)
Dewpoint: -5.7°C ( 22°F) [RH = 75%]
Pressure (altimeter):30.40 inches Hg (1029.5 mb)
Winds:from the ESE (120 degrees) at 6 MPH (5 knots; 2.6 m/s)
Visibility:10 or more sm (16+ km)
Ceiling:at least 12,000 feet AGL
Clouds: scattered clouds at 4300 feet AGL, scattered clouds at 6000 feet AGL
QC Flag:automated observation with no human augmentation
Text:K3I2 151615Z AUTO 15004KT 10SM SCT060 M02/M06 A3040 RMK AO2 T10231057
Temperature: -2.3°C ( 28°F)
Dewpoint: -5.7°C ( 22°F) [RH = 77%]
Pressure (altimeter):30.40 inches Hg (1029.5 mb)
Winds:from the SSE (150 degrees) at 5 MPH (4 knots; 2.1 m/s)
Visibility:10 or more sm (16+ km)
Ceiling:at least 12,000 feet AGL
Clouds: scattered clouds at 6000 feet AGL
QC Flag:automated observation with no human augmentation
Text:K3I2 151555Z AUTO 16006KT 10SM SCT001 SCT060 M02/M06 A3041 RMK AO2 T10251060
Temperature: -2.5°C ( 28°F)
Dewpoint: -6.0°C ( 21°F) [RH = 77%]
Pressure (altimeter):30.41 inches Hg (1029.9 mb)
Winds:from the SSE (160 degrees) at 7 MPH (6 knots; 3.1 m/s)
Visibility:10 or more sm (16+ km)
Ceiling:at least 12,000 feet AGL
Clouds: scattered clouds at 100 feet AGL, scattered clouds at 6000 feet AGL
QC Flag:automated observation with no human augmentation
Text:K3I2 151535Z AUTO 12003KT 10SM -SN BKN001 BKN006 M04/M06 A3040 RMK AO2 T10371065
Temperature: -3.7°C ( 25°F)
Dewpoint: -6.5°C ( 20°F) [RH = 81%]
Pressure (altimeter):30.40 inches Hg (1029.5 mb)
Winds:from the ESE (120 degrees) at 3 MPH (3 knots; 1.5 m/s)
Visibility:10 or more sm (16+ km)
Ceiling:100 feet AGL
Clouds: broken clouds at 100 feet AGL, broken clouds at 600 feet AGL
Weather:-SN (light snow)
QC Flag:automated observation with no human augmentation
Text:K3I2 151515Z AUTO 10004KT 5SM -SN OVC003 M05/M07 A3042 RMK AO2 T10481070
Temperature: -4.8°C ( 23°F)
Dewpoint: -7.0°C ( 19°F) [RH = 85%]
Pressure (altimeter):30.42 inches Hg (1030.2 mb)
Winds:from the E (100 degrees) at 5 MPH (4 knots; 2.1 m/s)
Visibility: 5 sm ( 8 km)
Ceiling:300 feet AGL
Clouds: overcast cloud deck at 300 feet AGL
Weather:-SN (light snow)
QC Flag:automated observation with no human augmentation
Text:K3I2 151455Z AUTO 00000KT 5SM -SN BKN003 OVC007 M06/M07 A3043 RMK AO2 T10591075
Temperature: -5.9°C ( 21°F)
Dewpoint: -7.5°C ( 18°F) [RH = 88%]
Pressure (altimeter):30.43 inches Hg (1030.6 mb)
Winds:calm
Visibility: 5 sm ( 8 km)
Ceiling:300 feet AGL
Clouds: broken clouds at 300 feet AGL, overcast cloud deck at 700 feet AGL
Weather:-SN (light snow)
QC Flag:automated observation with no human augmentation
Text:K3I2 151435Z AUTO 00000KT 4SM -SN BKN001 OVC006 M07/M08 A3044 RMK AO2 T10701085
Temperature: -7.0°C ( 19°F)
Dewpoint: -8.5°C ( 17°F) [RH = 89%]
Pressure (altimeter):30.44 inches Hg (1030.9 mb)
Winds:calm
Visibility: 4 sm ( 6 km)
Ceiling:100 feet AGL
Clouds: broken clouds at 100 feet AGL, overcast cloud deck at 600 feet AGL
Weather:-SN (light snow)
QC Flag:automated observation with no human augmentation
Text:K3I2 151415Z AUTO 00000KT 7SM -SN BKN001 BKN006 OVC012 M07/M09 A3044 RMK AO2 T10721088
Temperature: -7.2°C ( 19°F)
Dewpoint: -8.8°C ( 16°F) [RH = 88%]
Pressure (altimeter):30.44 inches Hg (1030.9 mb)
Winds:calm
Visibility: 7 sm ( 11 km)
Ceiling:100 feet AGL
Clouds: broken clouds at 100 feet AGL, broken clouds at 600 feet AGL, overcast cloud deck at 1200 feet AGL
Weather:-SN (light snow)
QC Flag:automated observation with no human augmentation
Text:K3I2 151355Z AUTO 00000KT 7SM -SN BKN001 OVC010 M08/M09 A3044 RMK AO2 T10781093
Temperature: -7.8°C ( 18°F)
Dewpoint: -9.3°C ( 15°F) [RH = 89%]
Pressure (altimeter):30.44 inches Hg (1030.9 mb)
Winds:calm
Visibility: 7 sm ( 11 km)
Ceiling:100 feet AGL
Clouds: broken clouds at 100 feet AGL, overcast cloud deck at 1000 feet AGL
Weather:-SN (light snow)
QC Flag:automated observation with no human augmentation
Text:K3I2 151335Z AUTO 00000KT 3SM -SN BKN001 OVC004 M08/M10 A3044 RMK AO2 T10841097
Temperature: -8.4°C ( 17°F)
Dewpoint: -9.7°C ( 15°F) [RH = 90%]
Pressure (altimeter):30.44 inches Hg (1030.9 mb)
Winds:calm
Visibility: 3 sm ( 5 km)
Ceiling:100 feet AGL
Clouds: broken clouds at 100 feet AGL, overcast cloud deck at 400 feet AGL
Weather:-SN (light snow)
QC Flag:automated observation with no human augmentation
Text:K3I2 151315Z AUTO 00000KT 3SM -SN OVC004 M09/M10 A3044 RMK AO2 T10871102
Temperature: -8.7°C ( 16°F)
Dewpoint:-10.2°C ( 14°F) [RH = 89%]
Pressure (altimeter):30.44 inches Hg (1030.9 mb)
Winds:calm
Visibility: 3 sm ( 5 km)
Ceiling:400 feet AGL
Clouds: overcast cloud deck at 400 feet AGL
Weather:-SN (light snow)
QC Flag:automated observation with no human augmentation
Text:K3I2 151255Z AUTO 00000KT 5SM -SN OVC002 M09/M10 A3044 RMK AO2 T10901105
Temperature: -9.0°C ( 16°F)
Dewpoint:-10.5°C ( 13°F) [RH = 89%]
Pressure (altimeter):30.44 inches Hg (1030.9 mb)
Winds:calm
Visibility: 5 sm ( 8 km)
Ceiling:200 feet AGL
Clouds: overcast cloud deck at 200 feet AGL
Weather:-SN (light snow)
QC Flag:automated observation with no human augmentation
Text:K3I2 151235Z AUTO 00000KT 1 3/4SM -SN OVC004 M09/M11 A3044 RMK AO2 T10921107
Temperature: -9.2°C ( 15°F)
Dewpoint:-10.7°C ( 13°F) [RH = 89%]
Pressure (altimeter):30.44 inches Hg (1030.9 mb)
Winds:calm
Visibility: 1.75 sm ( 2.82 km)
Ceiling:400 feet AGL
Clouds: overcast cloud deck at 400 feet AGL
Weather:-SN (light snow)
QC Flag:automated observation with no human augmentation
Text:K3I2 151215Z AUTO 00000KT 2SM -SN OVC004 M09/M11 A3044 RMK AO2 T10931110
Temperature: -9.3°C ( 15°F)
Dewpoint:-11.0°C ( 12°F) [RH = 87%]
Pressure (altimeter):30.44 inches Hg (1030.9 mb)
Winds:calm
Visibility: 2.00 sm ( 3.22 km)
Ceiling:400 feet AGL
Clouds: overcast cloud deck at 400 feet AGL
Weather:-SN (light snow)
QC Flag:automated observation with no human augmentation
Text:K3I2 151155Z AUTO 00000KT 4SM -SN OVC004 M09/M11 A3044 RMK AO2 T10951112 11095 21144
Temperature: -9.5°C ( 15°F)
Dewpoint:-11.2°C ( 12°F) [RH = 87%]
Pressure (altimeter):30.44 inches Hg (1030.9 mb)
Winds:calm
Visibility: 4 sm ( 6 km)
Ceiling:400 feet AGL
Clouds: overcast cloud deck at 400 feet AGL
Weather:-SN (light snow)
QC Flag:automated observation with no human augmentation
Text:K3I2 151135Z AUTO 00000KT 5SM -SN BKN001 BKN007 OVC010 M09/M11 A3044 RMK AO2 T10951115
Temperature: -9.5°C ( 15°F)
Dewpoint:-11.5°C ( 11°F) [RH = 85%]
Pressure (altimeter):30.44 inches Hg (1030.9 mb)
Winds:calm
Visibility: 5 sm ( 8 km)
Ceiling:100 feet AGL
Clouds: broken clouds at 100 feet AGL, broken clouds at 700 feet AGL, overcast cloud deck at 1000 feet AGL
Weather:-SN (light snow)
QC Flag:automated observation with no human augmentation
Text:K3I2 151115Z AUTO 00000KT 10SM SCT001 BKN009 BKN014 M10/M12 A3044 RMK AO2 T10981118
Temperature: -9.8°C ( 14°F)
Dewpoint:-11.8°C ( 11°F) [RH = 85%]
Pressure (altimeter):30.44 inches Hg (1030.9 mb)
Winds:calm
Visibility:10 or more sm (16+ km)
Ceiling:900 feet AGL
Clouds: scattered clouds at 100 feet AGL, broken clouds at 900 feet AGL, broken clouds at 1400 feet AGL
QC Flag:automated observation with no human augmentation
Text:K3I2 151055Z AUTO 00000KT 10SM CLR M10/M12 A3044 RMK AO2 T11021120
Temperature:-10.2°C ( 14°F)
Dewpoint:-12.0°C ( 10°F) [RH = 87%]
Pressure (altimeter):30.44 inches Hg (1030.9 mb)
Winds:calm
Visibility:10 or more sm (16+ km)
Ceiling:at least 12,000 feet AGL
Clouds:sky clear below 12,000 feet AGL
QC Flag:automated observation with no human augmentation
Text:K3I2 151035Z AUTO 00000KT 10SM CLR M11/M12 A3044 RMK AO2 T11061125
Temperature:-10.6°C ( 13°F)
Dewpoint:-12.5°C ( 10°F) [RH = 86%]
Pressure (altimeter):30.44 inches Hg (1030.9 mb)
Winds:calm
Visibility:10 or more sm (16+ km)
Ceiling:at least 12,000 feet AGL
Clouds:sky clear below 12,000 feet AGL
QC Flag:automated observation with no human augmentation
Text:K3I2 151015Z AUTO 00000KT 10SM CLR M11/M12 A3044 RMK AO2 T11091125
Temperature:-10.9°C ( 12°F)
Dewpoint:-12.5°C ( 10°F) [RH = 88%]
Pressure (altimeter):30.44 inches Hg (1030.9 mb)
Winds:calm
Visibility:10 or more sm (16+ km)
Ceiling:at least 12,000 feet AGL
Clouds:sky clear below 12,000 feet AGL
QC Flag:automated observation with no human augmentation
Text:K3I2 150955Z AUTO 00000KT 10SM CLR M11/M13 A3044 RMK AO2 T11101126
Temperature:-11.0°C ( 12°F)
Dewpoint:-12.6°C ( 9°F) [RH = 88%]
Pressure (altimeter):30.44 inches Hg (1030.9 mb)
Winds:calm
Visibility:10 or more sm (16+ km)
Ceiling:at least 12,000 feet AGL
Clouds:sky clear below 12,000 feet AGL
QC Flag:automated observation with no human augmentation
Text:K3I2 150935Z AUTO 00000KT 10SM CLR M12/M13 A3044 RMK AO2 T11161133
Temperature:-11.6°C ( 11°F)
Dewpoint:-13.3°C ( 8°F) [RH = 87%]
Pressure (altimeter):30.44 inches Hg (1030.9 mb)
Winds:calm
Visibility:10 or more sm (16+ km)
Ceiling:at least 12,000 feet AGL
Clouds:sky clear below 12,000 feet AGL
QC Flag:automated observation with no human augmentation
Text:K3I2 150915Z AUTO 00000KT 10SM CLR M12/M14 A3044 RMK AO2 T11211137
Temperature:-12.1°C ( 10°F)
Dewpoint:-13.7°C ( 7°F) [RH = 88%]
Pressure (altimeter):30.44 inches Hg (1030.9 mb)
Winds:calm
Visibility:10 or more sm (16+ km)
Ceiling:at least 12,000 feet AGL
Clouds:sky clear below 12,000 feet AGL
QC Flag:automated observation with no human augmentation
Text:K3I2 150855Z AUTO 00000KT 10SM CLR M12/M14 A3045 RMK AO2 T11231140
Temperature:-12.3°C ( 10°F)
Dewpoint:-14.0°C ( 7°F) [RH = 87%]
Pressure (altimeter):30.45 inches Hg (1031.2 mb)
Winds:calm
Visibility:10 or more sm (16+ km)
Ceiling:at least 12,000 feet AGL
Clouds:sky clear below 12,000 feet AGL
QC Flag:automated observation with no human augmentation
Text:K3I2 150835Z AUTO 00000KT 10SM CLR M13/M14 A3045 RMK AO2 T11271143
Temperature:-12.7°C ( 9°F)
Dewpoint:-14.3°C ( 6°F) [RH = 88%]
Pressure (altimeter):30.45 inches Hg (1031.2 mb)
Winds:calm
Visibility:10 or more sm (16+ km)
Ceiling:at least 12,000 feet AGL
Clouds:sky clear below 12,000 feet AGL
QC Flag:automated observation with no human augmentation
Text:K3I2 150815Z AUTO 00000KT 10SM CLR M13/M15 A3045 RMK AO2 T11331149
Temperature:-13.3°C ( 8°F)
Dewpoint:-14.9°C ( 5°F) [RH = 88%]
Pressure (altimeter):30.45 inches Hg (1031.2 mb)
Winds:calm
Visibility:10 or more sm (16+ km)
Ceiling:at least 12,000 feet AGL
Clouds:sky clear below 12,000 feet AGL
QC Flag:automated observation with no human augmentation
Text:K3I2 150755Z AUTO 00000KT 10SM CLR M14/M15 A3045 RMK AO2 T11361153
Temperature:-13.6°C ( 8°F)
Dewpoint:-15.3°C ( 4°F) [RH = 87%]
Pressure (altimeter):30.45 inches Hg (1031.2 mb)
Winds:calm
Visibility:10 or more sm (16+ km)
Ceiling:at least 12,000 feet AGL
Clouds:sky clear below 12,000 feet AGL
QC Flag:automated observation with no human augmentation
Text:K3I2 150735Z AUTO 00000KT 10SM CLR M14/M15 A3046 RMK AO2 T11371154
Temperature:-13.7°C ( 7°F)
Dewpoint:-15.4°C ( 4°F) [RH = 87%]
Pressure (altimeter):30.46 inches Hg (1031.6 mb)
Winds:calm
Visibility:10 or more sm (16+ km)
Ceiling:at least 12,000 feet AGL
Clouds:sky clear below 12,000 feet AGL
QC Flag:automated observation with no human augmentation